createdAt,value
2022-11-12T00:01:09.923Z,45.88
2022-11-12T00:03:37.601Z,50.42
2022-11-12T00:06:04.932Z,43.38
2022-11-12T00:08:32.109Z,45.22
2022-11-12T00:10:59.651Z,52.60
2022-11-12T00:13:26.976Z,45.47
2022-11-12T00:15:55.463Z,45.55
2022-11-12T00:18:23.112Z,41.75
2022-11-12T00:20:50.391Z,43.22
2022-11-12T00:23:17.933Z,47.13
2022-11-12T00:25:45.181Z,50.42
2022-11-12T00:28:12.473Z,53.08
2022-11-12T00:30:41.278Z,50.03
2022-11-12T00:33:08.740Z,57.65
2022-11-12T00:35:36.361Z,47.13
2022-11-12T00:38:03.580Z,47.47
2022-11-12T00:40:30.879Z,49.30
2022-11-12T00:42:58.369Z,47.45
2022-11-12T00:45:25.626Z,46.97
2022-11-12T00:47:57.041Z,45.95
2022-11-12T00:50:25.851Z,47.75
2022-11-12T00:52:54.395Z,48.97
2022-11-12T00:55:21.765Z,48.65
2022-11-12T00:57:49.359Z,45.55
2022-11-12T01:00:19.640Z,51.67
2022-11-12T01:02:51.045Z,52.17
2022-11-12T01:05:20.135Z,54.53
2022-11-12T01:07:53.095Z,52.08
2022-11-12T01:10:23.559Z,48.90
2022-11-12T01:12:50.748Z,50.65
2022-11-12T01:15:18.452Z,47.28
2022-11-12T01:17:45.665Z,47.67
2022-11-12T01:20:13.323Z,50.58
2022-11-12T01:22:40.566Z,51.95
2022-11-12T01:25:08.099Z,51.05
2022-11-12T01:27:35.742Z,56.55
2022-11-12T01:30:05.205Z,52.80
2022-11-12T01:32:37.302Z,49.72
2022-11-12T01:35:05.242Z,52.53
2022-11-12T01:37:32.491Z,51.13
2022-11-12T01:39:59.729Z,43.40
2022-11-12T01:42:32.125Z,45.97
2022-11-12T01:44:59.298Z,49.47
2022-11-12T01:47:33.171Z,49.75
2022-11-12T01:50:22.067Z,46.97
2022-11-12T01:53:06.964Z,54.03
2022-11-12T01:55:38.045Z,51.97
2022-11-12T01:58:11.797Z,51.72
2022-11-12T02:00:43.538Z,55.72
2022-11-12T02:03:20.468Z,50.15
2022-11-12T02:05:57.164Z,55.88
2022-11-12T02:08:27.444Z,53.45
2022-11-12T02:10:55.277Z,56.38
2022-11-12T02:14:01.503Z,45.47
2022-11-12T02:16:37.978Z,47.88
2022-11-12T02:19:10.427Z,49.88
2022-11-12T02:21:38.302Z,51.42
2022-11-12T02:24:14.259Z,53.03
2022-11-12T02:26:47.847Z,47.53
2022-11-12T02:29:15.336Z,51.17
2022-11-12T02:31:43.298Z,52.88
2022-11-12T02:34:10.555Z,42.95
2022-11-12T02:36:38.235Z,47.80
2022-11-12T02:39:06.378Z,47.80
2022-11-12T02:41:33.580Z,50.58
2022-11-12T02:44:01.354Z,39.05
2022-11-12T02:46:28.540Z,43.40
2022-11-12T02:48:55.824Z,44.80
2022-11-12T02:51:23.308Z,40.05
2022-11-12T02:53:50.524Z,39.55
2022-11-12T02:56:18.020Z,44.00
2022-11-12T02:58:45.256Z,48.63
2022-11-12T03:01:12.459Z,49.65
2022-11-12T03:03:40.004Z,50.70
2022-11-12T03:06:07.899Z,44.35
2022-11-12T03:08:35.296Z,50.47
2022-11-12T03:11:15.945Z,46.72
2022-11-12T03:13:43.563Z,47.03
2022-11-12T03:16:11.067Z,46.60
2022-11-12T03:18:39.034Z,40.95
2022-11-12T03:21:06.522Z,51.88
2022-11-12T03:23:34.150Z,43.67
2022-11-12T03:26:04.243Z,40.03
2022-11-12T03:28:32.109Z,44.95
2022-11-12T03:31:01.034Z,37.50
2022-11-12T03:33:28.665Z,41.22
2022-11-12T03:35:56.162Z,36.08
2022-11-12T03:38:24.091Z,38.17
2022-11-12T03:40:51.843Z,40.42
2022-11-12T03:43:19.112Z,36.78
2022-11-12T03:45:46.633Z,36.75
2022-11-12T03:48:13.847Z,38.13
2022-11-12T03:50:41.152Z,32.40
2022-11-12T03:53:09.326Z,31.63
2022-11-12T03:55:36.684Z,34.33
2022-11-12T03:58:04.451Z,36.00
2022-11-12T04:00:31.915Z,41.10
2022-11-12T04:03:00.187Z,40.72
2022-11-12T04:05:46.246Z,39.03
2022-11-12T04:08:37.844Z,37.45
2022-11-12T04:11:16.562Z,35.53
2022-11-12T04:13:47.875Z,34.17
2022-11-12T04:16:40.793Z,32.67
2022-11-12T04:19:31.091Z,31.80
2022-11-12T04:22:09.627Z,30.55
2022-11-12T04:24:59.326Z,32.10
2022-11-12T04:27:33.564Z,27.60
2022-11-12T04:30:16.352Z,35.95
2022-11-12T04:32:54.792Z,33.80
2022-11-12T04:35:24.572Z,30.73
2022-11-12T04:37:52.489Z,31.35
2022-11-12T04:40:46.200Z,31.42
2022-11-12T04:43:36.834Z,32.40
2022-11-12T04:46:05.359Z,28.15
2022-11-12T04:48:33.216Z,32.33
2022-11-12T04:51:29.039Z,30.83
2022-11-12T04:53:56.506Z,30.38
2022-11-12T04:56:23.733Z,30.42
2022-11-12T04:58:50.955Z,32.75
2022-11-12T05:01:18.507Z,31.70
2022-11-12T05:03:45.769Z,29.10
2022-11-12T05:06:31.270Z,30.52
2022-11-12T05:08:58.890Z,32.10
2022-11-12T05:11:26.085Z,29.55
2022-11-12T05:13:53.339Z,33.00
2022-11-12T05:16:20.822Z,31.35
2022-11-12T05:18:48.035Z,33.05
2022-11-12T05:21:33.463Z,31.90
2022-11-12T05:24:01.041Z,34.38
2022-11-12T05:26:29.331Z,30.35
2022-11-12T05:28:56.595Z,33.55
2022-11-12T05:31:24.032Z,30.48
2022-11-12T05:33:51.348Z,29.90
2022-11-12T05:36:18.579Z,31.42
2022-11-12T05:38:46.096Z,29.80
2022-11-12T05:41:18.781Z,30.42
2022-11-12T05:43:47.553Z,28.05
2022-11-12T05:46:14.822Z,26.52
2022-11-12T05:48:42.029Z,31.98
2022-11-12T05:51:13.562Z,27.75
2022-11-12T05:53:42.608Z,30.17
2022-11-12T05:56:11.668Z,30.70
2022-11-12T05:58:39.597Z,30.65
2022-11-12T06:01:07.460Z,32.90
2022-11-12T06:03:35.028Z,28.92
2022-11-12T06:06:02.512Z,34.53
2022-11-12T06:08:29.878Z,28.27
2022-11-12T06:10:57.163Z,26.17
2022-11-12T06:13:26.499Z,33.58
2022-11-12T06:15:54.950Z,33.17
2022-11-12T06:18:23.980Z,27.85
2022-11-12T06:21:10.059Z,24.85
2022-11-12T06:23:37.703Z,30.55
2022-11-12T06:26:05.409Z,33.28
2022-11-12T06:28:32.651Z,30.17
2022-11-12T06:30:59.866Z,34.10
2022-11-12T06:33:27.420Z,33.20
2022-11-12T06:36:03.158Z,34.63
2022-11-12T06:38:33.310Z,34.50
2022-11-12T06:41:00.846Z,37.50
2022-11-12T06:43:31.381Z,37.67
2022-11-12T06:46:04.772Z,42.22
2022-11-12T06:48:32.391Z,37.53
2022-11-12T06:51:06.779Z,40.47
2022-11-12T06:53:34.491Z,38.08
2022-11-12T06:56:04.851Z,40.42
2022-11-12T06:58:32.528Z,36.58
2022-11-12T07:01:11.199Z,36.13
2022-11-12T07:03:41.989Z,34.08
2022-11-12T07:06:13.466Z,44.33
2022-11-12T07:08:42.153Z,39.03
2022-11-12T07:11:11.077Z,36.25
2022-11-12T07:13:38.757Z,35.78
2022-11-12T07:16:10.915Z,30.70
2022-11-12T07:18:38.793Z,28.70
2022-11-12T07:21:10.615Z,26.17
2022-11-12T07:23:38.721Z,30.40
2022-11-12T07:26:13.897Z,36.47
2022-11-12T07:28:41.771Z,45.78
2022-11-12T07:31:12.565Z,45.47
2022-11-12T07:33:40.704Z,45.45
2022-11-12T07:36:14.871Z,44.42
2022-11-12T07:38:44.381Z,37.45
2022-11-12T07:41:17.269Z,40.85
2022-11-12T07:43:48.977Z,40.92
2022-11-12T07:46:24.309Z,46.20
2022-11-12T07:48:52.489Z,50.63
2022-11-12T07:51:26.968Z,43.08
2022-11-12T07:53:59.490Z,43.35
2022-11-12T07:56:28.686Z,38.47
2022-11-12T07:58:56.338Z,39.80
2022-11-12T08:01:36.299Z,41.10
2022-11-12T08:04:09.388Z,43.95
2022-11-12T08:06:37.963Z,38.38
2022-11-12T08:09:08.583Z,41.20
2022-11-12T08:11:35.882Z,44.22
2022-11-12T08:14:04.166Z,38.72
2022-11-12T08:16:31.844Z,40.42
2022-11-12T08:19:00.502Z,38.25
2022-11-12T08:21:27.807Z,36.20
2022-11-12T08:23:55.390Z,32.03
2022-11-12T08:26:23.591Z,32.95
2022-11-12T08:28:51.093Z,32.13
2022-11-12T08:31:23.866Z,31.70
2022-11-12T08:33:51.395Z,27.00
2022-11-12T08:36:19.040Z,21.10
2022-11-12T08:38:46.771Z,22.95
2022-11-12T08:41:17.721Z,24.08
2022-11-12T08:43:45.791Z,22.55
2022-11-12T08:46:13.158Z,21.67
2022-11-12T08:48:40.690Z,20.80
2022-11-12T08:51:08.389Z,21.52
2022-11-12T08:53:36.208Z,19.80
2022-11-12T08:56:03.815Z,19.33
2022-11-12T08:58:31.441Z,21.15
2022-11-12T09:01:06.405Z,20.58
2022-11-12T09:03:34.009Z,19.80
2022-11-12T09:06:05.585Z,19.73
2022-11-12T09:08:36.302Z,19.88
2022-11-12T09:11:04.661Z,17.48
2022-11-12T09:13:32.364Z,16.48
2022-11-12T09:16:06.374Z,19.67
2022-11-12T09:18:35.272Z,14.88
2022-11-12T09:21:10.783Z,14.30
2022-11-12T09:23:38.530Z,14.23
2022-11-12T09:26:06.821Z,15.88
2022-11-12T09:28:34.438Z,16.13
2022-11-12T09:31:02.217Z,14.20
2022-11-12T09:33:34.072Z,14.07
2022-11-12T09:36:03.034Z,15.13
2022-11-12T09:38:31.514Z,12.90
2022-11-12T09:41:34.427Z,12.57
2022-11-12T09:44:11.455Z,13.55
2022-11-12T09:46:54.299Z,13.70
2022-11-12T09:49:31.411Z,13.57
2022-11-12T09:52:27.108Z,15.77
2022-11-12T09:55:21.139Z,12.25
2022-11-12T09:57:48.360Z,12.18
2022-11-12T10:00:21.331Z,11.05
2022-11-12T10:03:48.298Z,12.43
2022-11-12T10:06:19.365Z,11.77
2022-11-12T10:09:09.804Z,11.90
2022-11-12T10:12:37.841Z,11.50
2022-11-12T10:16:04.630Z,9.38
2022-11-12T10:19:01.298Z,10.25
2022-11-12T10:21:51.295Z,10.70
2022-11-12T10:24:22.806Z,10.90
2022-11-12T10:26:52.399Z,8.48
2022-11-12T10:29:36.643Z,8.77
2022-11-12T10:32:04.156Z,9.48
2022-11-12T10:34:31.633Z,6.57
2022-11-12T10:37:07.782Z,7.35
2022-11-12T10:39:41.595Z,10.43
2022-11-12T10:42:16.567Z,9.82
2022-11-12T10:44:45.763Z,8.25
2022-11-12T10:47:30.622Z,9.55
2022-11-12T10:50:28.963Z,10.65
2022-11-12T10:53:07.473Z,7.30
2022-11-12T10:55:58.944Z,7.28
2022-11-12T10:58:26.454Z,9.30
2022-11-12T11:01:03.088Z,8.57
2022-11-12T11:03:44.476Z,6.63
2022-11-12T11:06:14.978Z,6.13
2022-11-12T11:08:52.327Z,5.97
2022-11-12T11:11:29.098Z,9.00
2022-11-12T11:14:23.698Z,8.27
2022-11-12T11:17:02.203Z,8.57
2022-11-12T11:19:43.444Z,8.93
2022-11-12T11:22:19.787Z,6.03
2022-11-12T11:25:01.361Z,7.90
2022-11-12T11:27:55.811Z,7.88
2022-11-12T11:30:23.860Z,6.88
2022-11-12T11:33:28.050Z,7.93
2022-11-12T11:36:24.521Z,6.00
2022-11-12T11:39:40.205Z,6.28
2022-11-12T11:42:13.583Z,5.85
2022-11-12T11:45:17.205Z,6.15
2022-11-12T11:48:42.127Z,6.15
2022-11-12T11:51:53.098Z,6.88
2022-11-12T11:55:05.028Z,7.38
2022-11-12T11:58:11.663Z,7.65
2022-11-12T12:00:41.692Z,6.80
2022-11-12T12:03:57.976Z,6.45
2022-11-12T12:06:29.850Z,8.30
2022-11-12T12:09:17.907Z,8.38
2022-11-12T12:12:21.813Z,8.18
2022-11-12T12:15:32.512Z,6.50
2022-11-12T12:18:29.076Z,7.20
2022-11-12T12:21:14.386Z,7.97
2022-11-12T12:24:30.027Z,7.30
2022-11-12T12:27:30.638Z,7.38
2022-11-12T12:30:22.772Z,5.90
2022-11-12T12:33:13.904Z,6.85
2022-11-12T12:36:01.375Z,8.38
2022-11-12T12:38:59.663Z,5.53
2022-11-12T12:41:39.497Z,6.50
2022-11-12T12:44:10.306Z,5.55
2022-11-12T12:46:47.536Z,6.40
2022-11-12T12:49:28.557Z,4.70
2022-11-12T12:51:56.139Z,5.22
2022-11-12T12:54:35.978Z,6.07
2022-11-12T12:57:32.226Z,8.35
2022-11-12T13:00:28.887Z,7.72
2022-11-12T13:02:56.782Z,5.82
2022-11-12T13:05:37.459Z,9.10
2022-11-12T13:08:23.426Z,5.45
2022-11-12T13:10:52.358Z,5.80
2022-11-12T13:13:19.466Z,7.05
2022-11-12T13:15:54.896Z,5.55
2022-11-12T13:18:37.558Z,5.70
2022-11-12T13:21:13.069Z,8.07
2022-11-12T13:24:06.713Z,8.10
2022-11-12T13:26:40.037Z,7.38
2022-11-12T13:29:40.788Z,7.15
2022-11-12T13:32:35.634Z,6.45
2022-11-12T13:35:29.706Z,6.80
2022-11-12T13:38:01.115Z,7.50
2022-11-12T13:40:41.387Z,6.65
2022-11-12T13:43:35.975Z,5.53
2022-11-12T13:46:33.334Z,9.02
2022-11-12T13:49:19.663Z,6.95
2022-11-12T13:51:53.269Z,6.75
2022-11-12T13:54:39.764Z,5.50
2022-11-12T13:57:25.020Z,4.88
2022-11-12T14:00:23.282Z,7.03
2022-11-12T14:03:08.020Z,6.03
2022-11-12T14:05:38.760Z,6.00
2022-11-12T14:08:40.542Z,6.32
2022-11-12T14:12:10.757Z,9.45
2022-11-12T14:15:22.428Z,6.80
2022-11-12T14:18:04.784Z,7.95
2022-11-12T14:20:39.905Z,7.57
2022-11-12T14:23:24.808Z,7.72
2022-11-12T14:25:56.132Z,6.50
2022-11-12T14:28:37.370Z,7.05
2022-11-12T14:31:14.095Z,8.70
2022-11-12T14:33:41.560Z,8.25
2022-11-12T14:36:16.481Z,10.27
2022-11-12T14:38:57.144Z,13.18
2022-11-12T14:41:42.877Z,11.75
2022-11-12T14:44:19.424Z,13.77
2022-11-12T14:46:54.086Z,11.20
2022-11-12T14:49:44.751Z,11.68
2022-11-12T14:52:20.791Z,11.48
2022-11-12T14:54:54.990Z,11.13
2022-11-12T14:57:31.468Z,15.98
2022-11-12T14:59:58.960Z,13.27
2022-11-12T15:02:49.843Z,15.68
2022-11-12T15:05:23.524Z,15.00
2022-11-12T15:08:02.926Z,18.60
2022-11-12T15:10:30.733Z,12.73
2022-11-12T15:13:15.788Z,12.23
2022-11-12T15:16:07.513Z,13.60
2022-11-12T15:18:38.883Z,13.70
2022-11-12T15:21:30.035Z,14.95
2022-11-12T15:24:17.077Z,13.77
2022-11-12T15:26:48.528Z,15.77
2022-11-12T15:29:24.582Z,15.98
2022-11-12T15:31:57.760Z,14.82
2022-11-12T15:34:34.683Z,15.30
2022-11-12T15:37:26.449Z,16.88
2022-11-12T15:40:03.916Z,15.07
2022-11-12T15:42:40.070Z,15.98
2022-11-12T15:45:22.085Z,16.33
2022-11-12T15:47:49.528Z,19.40
2022-11-12T15:50:23.777Z,16.85
2022-11-12T15:52:51.410Z,21.73
2022-11-12T15:55:19.412Z,20.80
2022-11-12T15:57:52.288Z,18.92
2022-11-12T16:00:30.628Z,19.85
2022-11-12T16:03:17.346Z,15.07
2022-11-12T16:05:45.771Z,27.88
2022-11-12T16:08:13.510Z,25.85
2022-11-12T16:10:44.482Z,29.88
2022-11-12T16:13:24.249Z,33.83
2022-11-12T16:15:57.242Z,30.85
2022-11-12T16:18:24.454Z,42.03
2022-11-12T16:20:51.981Z,41.25
2022-11-12T16:23:19.189Z,33.92
2022-11-12T16:25:52.230Z,39.33
2022-11-12T16:28:19.691Z,37.45
2022-11-12T16:30:51.015Z,84.97
2022-11-12T16:33:18.490Z,111.63
2022-11-12T16:35:45.751Z,71.97
2022-11-12T16:38:15.578Z,67.10
2022-11-12T16:40:44.899Z,57.40
2022-11-12T16:43:12.247Z,52.28
2022-11-12T16:45:43.844Z,45.17
2022-11-12T16:48:22.400Z,39.65
2022-11-12T16:50:50.010Z,42.88
2022-11-12T16:53:17.141Z,46.22
2022-11-12T16:55:45.053Z,45.65
2022-11-12T16:58:14.353Z,44.70
2022-11-12T17:00:45.984Z,41.78
2022-11-12T17:03:14.073Z,45.38
2022-11-12T17:05:41.511Z,39.35
2022-11-12T17:08:10.922Z,38.00
2022-11-12T17:10:38.690Z,38.35
2022-11-12T17:13:05.844Z,36.53
2022-11-12T17:15:33.349Z,36.97
2022-11-12T17:18:00.511Z,40.47
2022-11-12T17:20:27.981Z,45.20
2022-11-12T17:22:58.178Z,46.88
2022-11-12T17:25:26.748Z,43.90
2022-11-12T17:27:53.953Z,52.95
2022-11-12T17:30:26.529Z,61.58
2022-11-12T17:32:53.744Z,54.00
2022-11-12T17:35:21.263Z,58.85
2022-11-12T17:37:48.421Z,55.63
2022-11-12T17:40:16.172Z,43.25
2022-11-12T17:42:43.310Z,43.88
2022-11-12T17:45:10.879Z,39.72
2022-11-12T17:47:40.425Z,40.17
2022-11-12T17:50:08.516Z,40.50
2022-11-12T17:52:35.947Z,42.72
2022-11-12T17:55:03.289Z,63.47
2022-11-12T17:57:30.433Z,52.92
2022-11-12T17:59:57.956Z,52.63
2022-11-12T18:02:25.119Z,57.03
2022-11-12T18:04:52.299Z,57.53
2022-11-12T18:07:20.092Z,63.08
2022-11-12T18:09:47.389Z,70.15
2022-11-12T18:12:15.573Z,70.10
2022-11-12T18:14:42.725Z,71.13
2022-11-12T18:17:10.488Z,65.78
2022-11-12T18:19:37.689Z,78.43
2022-11-12T18:22:04.993Z,77.78
2022-11-12T18:24:32.539Z,76.50
2022-11-12T18:26:59.716Z,77.20
2022-11-12T18:29:27.366Z,73.65
2022-11-12T18:31:54.617Z,76.05
2022-11-12T18:34:21.848Z,80.68
2022-11-12T18:36:49.326Z,85.68
2022-11-12T18:39:16.520Z,78.15
2022-11-12T18:41:43.775Z,81.70
2022-11-12T18:44:11.343Z,85.18
2022-11-12T18:46:44.857Z,92.75
2022-11-12T18:49:12.307Z,85.25
2022-11-12T18:51:39.777Z,83.03
2022-11-12T18:54:07.380Z,83.60
2022-11-12T18:56:34.858Z,73.88
2022-11-12T18:59:02.011Z,74.53
2022-11-12T19:01:29.566Z,77.82
2022-11-12T19:03:57.669Z,79.60
2022-11-12T19:06:26.419Z,74.85
2022-11-12T19:09:00.645Z,83.65
2022-11-12T19:11:28.188Z,80.47
2022-11-12T19:13:56.322Z,86.50
2022-11-12T19:16:23.947Z,77.53
2022-11-12T19:18:52.379Z,86.53
2022-11-12T19:21:25.086Z,87.22
2022-11-12T19:23:57.247Z,84.63
2022-11-12T19:26:24.794Z,100.45
2022-11-12T19:28:52.538Z,99.53
2022-11-12T19:31:26.783Z,95.20
2022-11-12T19:33:54.959Z,105.22
2022-11-12T19:36:25.951Z,97.40
2022-11-12T19:38:56.717Z,74.97
2022-11-12T19:41:24.866Z,104.30
2022-11-12T19:43:52.958Z,99.50
2022-11-12T19:46:20.796Z,85.88
2022-11-12T19:48:47.980Z,104.57
2022-11-12T19:51:15.203Z,75.00
2022-11-12T19:53:46.771Z,81.53
2022-11-12T19:56:21.007Z,72.32
2022-11-12T19:58:49.628Z,116.05
2022-11-12T20:01:19.020Z,63.85
2022-11-12T20:03:46.858Z,67.68
2022-11-12T20:06:22.562Z,80.88
2022-11-12T20:08:49.778Z,66.75
2022-11-12T20:11:18.963Z,70.80
2022-11-12T20:13:46.840Z,113.53
2022-11-12T20:16:20.945Z,88.72
2022-11-12T20:18:56.137Z,106.72
2022-11-12T20:21:24.785Z,79.13
2022-11-12T20:23:52.001Z,108.60
2022-11-12T20:26:19.699Z,89.82
2022-11-12T20:28:46.916Z,117.97
2022-11-12T20:31:20.802Z,117.53
2022-11-12T20:33:50.940Z,91.82
2022-11-12T20:36:21.229Z,92.68
2022-11-12T20:38:50.396Z,89.85
2022-11-12T20:41:22.013Z,72.50
2022-11-12T20:43:57.842Z,94.78
2022-11-12T20:46:27.124Z,79.43
2022-11-12T20:48:54.954Z,92.03
2022-11-12T20:51:26.255Z,111.43
2022-11-12T20:53:59.928Z,78.57
2022-11-12T20:56:30.633Z,97.95
2022-11-12T20:58:59.377Z,71.15
2022-11-12T21:01:29.466Z,87.63
2022-11-12T21:03:58.017Z,92.53
2022-11-12T21:06:28.967Z,101.68
2022-11-12T21:09:00.065Z,96.03
2022-11-12T21:11:27.619Z,128.93
2022-11-12T21:13:54.876Z,118.93
2022-11-12T21:16:22.308Z,71.53
2022-11-12T21:18:49.771Z,78.75
2022-11-12T21:21:21.334Z,89.45
2022-11-12T21:23:50.437Z,79.95
2022-11-12T21:26:21.162Z,76.35
2022-11-12T21:28:51.447Z,101.88
2022-11-12T21:31:21.722Z,72.53
2022-11-12T21:34:00.261Z,78.25
2022-11-12T21:36:30.198Z,112.63
2022-11-12T21:38:58.430Z,80.20
2022-11-12T21:41:28.814Z,68.72
2022-11-12T21:43:56.259Z,64.18
2022-11-12T21:46:27.581Z,79.82
2022-11-12T21:48:57.128Z,61.60
2022-11-12T21:51:32.364Z,65.40
2022-11-12T21:54:06.732Z,86.25
2022-11-12T21:56:35.566Z,65.13
2022-11-12T21:59:04.221Z,63.20
2022-11-12T22:01:34.486Z,69.25
2022-11-12T22:04:07.208Z,67.88
2022-11-12T22:06:38.382Z,59.58
2022-11-12T22:09:06.392Z,64.95
2022-11-12T22:11:33.582Z,62.47
2022-11-12T22:14:01.060Z,68.05
2022-11-12T22:16:31.786Z,56.38
2022-11-12T22:19:00.501Z,77.93
2022-11-12T22:21:36.753Z,62.03
2022-11-12T22:24:12.876Z,67.55
2022-11-12T22:26:40.313Z,60.58
2022-11-12T22:29:07.429Z,60.33
2022-11-12T22:31:34.715Z,64.60
2022-11-12T22:34:02.600Z,76.70
2022-11-12T22:36:31.655Z,64.20
2022-11-12T22:38:58.990Z,67.30
2022-11-12T22:41:30.010Z,64.53
2022-11-12T22:44:02.492Z,76.15
2022-11-12T22:46:34.645Z,66.13
2022-11-12T22:49:04.119Z,72.22
2022-11-12T22:51:34.953Z,64.97
2022-11-12T22:54:06.276Z,73.90
2022-11-12T22:56:34.014Z,64.43
2022-11-12T22:59:04.845Z,78.40
2022-11-12T23:01:35.183Z,64.22
2022-11-12T23:04:06.373Z,58.80
2022-11-12T23:06:34.729Z,61.05
2022-11-12T23:09:03.589Z,47.78
2022-11-12T23:11:31.758Z,69.55
2022-11-12T23:13:59.255Z,72.50
2022-11-12T23:16:30.728Z,53.88
2022-11-12T23:18:59.383Z,53.40
2022-11-12T23:21:30.215Z,72.68
2022-11-12T23:23:59.157Z,86.57
2022-11-12T23:26:33.817Z,50.75
2022-11-12T23:29:02.184Z,59.38
2022-11-12T23:31:32.234Z,77.38
2022-11-12T23:34:00.975Z,74.32
2022-11-12T23:36:29.051Z,68.07
2022-11-12T23:38:58.390Z,65.07
2022-11-12T23:41:27.487Z,62.88
2022-11-12T23:43:57.275Z,65.38
2022-11-12T23:46:24.922Z,86.10
2022-11-12T23:48:52.132Z,71.53
2022-11-12T23:51:21.910Z,72.78
2022-11-12T23:53:49.855Z,73.00
2022-11-12T23:56:19.944Z,66.50
2022-11-12T23:58:47.632Z,75.93
